sensor_id;sensor_type;location;lat;lon;timestamp;temperature;humidity
76759;DHT22;65701;45.588;5.186;2022-12-07T06:05:54;3.62;83.10
76759;DHT22;65701;45.588;5.186;2022-12-07T06:08:19;3.62;83.02
76759;DHT22;65701;45.588;5.186;2022-12-07T06:10:46;3.62;83.01
76759;DHT22;65701;45.588;5.186;2022-12-07T06:13:32;3.63;83.00
76759;DHT22;65701;45.588;5.186;2022-12-07T06:15:57;3.65;83.00
76759;DHT22;65701;45.588;5.186;2022-12-07T06:18:23;3.65;83.02
76759;DHT22;65701;45.588;5.186;2022-12-07T06:20:49;3.68;83.04
76759;DHT22;65701;45.588;5.186;2022-12-07T06:23:15;3.69;83.03
76759;DHT22;65701;45.588;5.186;2022-12-07T06:25:45;3.69;82.99
76759;DHT22;65701;45.588;5.186;2022-12-07T06:28:10;3.70;82.94
76759;DHT22;65701;45.588;5.186;2022-12-07T06:30:36;3.72;82.94
76759;DHT22;65701;45.588;5.186;2022-12-07T06:33:01;3.72;82.95
76759;DHT22;65701;45.588;5.186;2022-12-07T06:35:27;3.72;82.90
76759;DHT22;65701;45.588;5.186;2022-12-07T06:37:52;3.70;82.89
76759;DHT22;65701;45.588;5.186;2022-12-07T06:40:18;3.69;82.89
76759;DHT22;65701;45.588;5.186;2022-12-07T06:42:43;3.69;82.90
76759;DHT22;65701;45.588;5.186;2022-12-07T06:45:09;3.69;82.87
76759;DHT22;65701;45.588;5.186;2022-12-07T06:47:35;3.70;82.84
76759;DHT22;65701;45.588;5.186;2022-12-07T06:50:00;3.73;82.82
76759;DHT22;65701;45.588;5.186;2022-12-07T06:52:26;3.66;82.83
76759;DHT22;65701;45.588;5.186;2022-12-07T06:54:51;3.68;82.77
76759;DHT22;65701;45.588;5.186;2022-12-07T06:57:16;3.68;82.78
76759;DHT22;65701;45.588;5.186;2022-12-07T06:59:42;3.69;82.79
76759;DHT22;65701;45.588;5.186;2022-12-07T07:02:08;3.70;82.81
76759;DHT22;65701;45.588;5.186;2022-12-07T07:04:34;3.69;82.78
76759;DHT22;65701;45.588;5.186;2022-12-07T07:07:00;3.73;82.83
76759;DHT22;65701;45.588;5.186;2022-12-07T07:09:25;3.73;82.77
76759;DHT22;65701;45.588;5.186;2022-12-07T07:11:51;3.72;82.77
76759;DHT22;65701;45.588;5.186;2022-12-07T07:14:16;3.72;82.74
76759;DHT22;65701;45.588;5.186;2022-12-07T07:16:44;3.73;82.69
76759;DHT22;65701;45.588;5.186;2022-12-07T07:19:10;3.75;82.71
76759;DHT22;65701;45.588;5.186;2022-12-07T07:21:36;3.72;82.67
76759;DHT22;65701;45.588;5.186;2022-12-07T07:24:02;3.72;82.72
76759;DHT22;65701;45.588;5.186;2022-12-07T07:26:27;3.73;82.74
76759;DHT22;65701;45.588;5.186;2022-12-07T07:28:53;3.73;82.74
76759;DHT22;65701;45.588;5.186;2022-12-07T07:31:18;3.75;82.70
76759;DHT22;65701;45.588;5.186;2022-12-07T07:33:45;3.73;82.75
76759;DHT22;65701;45.588;5.186;2022-12-07T07:36:11;3.73;82.78
76759;DHT22;65701;45.588;5.186;2022-12-07T07:38:36;3.76;82.76
76759;DHT22;65701;45.588;5.186;2022-12-07T07:41:02;3.78;82.81
76759;DHT22;65701;45.588;5.186;2022-12-07T07:43:27;3.78;82.86
76759;DHT22;65701;45.588;5.186;2022-12-07T07:45:53;3.78;82.88
76759;DHT22;65701;45.588;5.186;2022-12-07T07:48:18;3.78;82.83
76759;DHT22;65701;45.588;5.186;2022-12-07T07:50:44;3.79;82.79
76759;DHT22;65701;45.588;5.186;2022-12-07T07:53:09;3.82;82.86
76759;DHT22;65701;45.588;5.186;2022-12-07T07:55:35;3.82;82.90
76759;DHT22;65701;45.588;5.186;2022-12-07T07:58:00;3.80;83.00
76759;DHT22;65701;45.588;5.186;2022-12-07T08:00:26;3.82;83.01
76759;DHT22;65701;45.588;5.186;2022-12-07T08:02:51;3.85;83.02
76759;DHT22;65701;45.588;5.186;2022-12-07T08:05:17;3.87;83.04
76759;DHT22;65701;45.588;5.186;2022-12-07T08:07:43;3.87;83.11
76759;DHT22;65701;45.588;5.186;2022-12-07T08:10:11;3.85;83.06
76759;DHT22;65701;45.588;5.186;2022-12-07T08:12:41;3.86;83.22
76759;DHT22;65701;45.588;5.186;2022-12-07T08:15:28;3.80;83.15
76759;DHT22;65701;45.588;5.186;2022-12-07T08:17:53;3.87;83.25
76759;DHT22;65701;45.588;5.186;2022-12-07T08:20:20;3.82;83.14
76759;DHT22;65701;45.588;5.186;2022-12-07T08:22:45;3.85;83.11
76759;DHT22;65701;45.588;5.186;2022-12-07T08:25:11;3.82;83.29
76759;DHT22;65701;45.588;5.186;2022-12-07T08:27:36;3.78;83.62
76759;DHT22;65701;45.588;5.186;2022-12-07T08:30:02;3.75;83.86
76759;DHT22;65701;45.588;5.186;2022-12-07T08:32:28;3.70;83.82
76759;DHT22;65701;45.588;5.186;2022-12-07T08:34:53;3.70;83.99
76759;DHT22;65701;45.588;5.186;2022-12-07T08:37:19;3.69;83.97
76759;DHT22;65701;45.588;5.186;2022-12-07T08:39:44;3.69;83.91
76759;DHT22;65701;45.588;5.186;2022-12-07T08:42:09;3.72;83.97
76759;DHT22;65701;45.588;5.186;2022-12-07T08:44:35;3.72;83.85
76759;DHT22;65701;45.588;5.186;2022-12-07T08:47:03;3.78;83.74
76759;DHT22;65701;45.588;5.186;2022-12-07T08:49:38;3.78;83.72
76759;DHT22;65701;45.588;5.186;2022-12-07T08:52:04;3.80;83.63
76759;DHT22;65701;45.588;5.186;2022-12-07T08:54:30;3.76;83.84
76759;DHT22;65701;45.588;5.186;2022-12-07T08:56:58;3.75;83.91
76759;DHT22;65701;45.588;5.186;2022-12-07T08:59:24;3.73;83.99
76759;DHT22;65701;45.588;5.186;2022-12-07T09:01:49;3.70;83.68
76759;DHT22;65701;45.588;5.186;2022-12-07T09:04:15;3.69;83.89
76759;DHT22;65701;45.588;5.186;2022-12-07T09:06:41;3.65;84.26
76759;DHT22;65701;45.588;5.186;2022-12-07T09:09:08;3.69;84.19
76759;DHT22;65701;45.588;5.186;2022-12-07T09:11:34;3.69;84.45
76759;DHT22;65701;45.588;5.186;2022-12-07T09:13:59;3.65;84.57
76759;DHT22;65701;45.588;5.186;2022-12-07T09:16:25;3.70;84.41
76759;DHT22;65701;45.588;5.186;2022-12-07T09:18:50;3.68;84.39
76759;DHT22;65701;45.588;5.186;2022-12-07T09:21:16;3.68;84.41
76759;DHT22;65701;45.588;5.186;2022-12-07T09:23:42;3.68;84.44
76759;DHT22;65701;45.588;5.186;2022-12-07T09:26:08;3.72;84.29
76759;DHT22;65701;45.588;5.186;2022-12-07T09:28:33;3.72;84.24
76759;DHT22;65701;45.588;5.186;2022-12-07T09:30:59;3.63;84.34
76759;DHT22;65701;45.588;5.186;2022-12-07T09:33:25;3.70;84.40
76759;DHT22;65701;45.588;5.186;2022-12-07T09:35:51;3.75;84.22
76759;DHT22;65701;45.588;5.186;2022-12-07T09:38:18;3.80;84.10
76759;DHT22;65701;45.588;5.186;2022-12-07T09:40:44;3.80;83.88
76759;DHT22;65701;45.588;5.186;2022-12-07T09:43:18;3.86;83.92
76759;DHT22;65701;45.588;5.186;2022-12-07T09:45:47;3.87;83.73
76759;DHT22;65701;45.588;5.186;2022-12-07T09:48:18;3.87;83.57
76759;DHT22;65701;45.588;5.186;2022-12-07T09:50:46;3.91;83.54
76759;DHT22;65701;45.588;5.186;2022-12-07T09:53:28;3.90;83.55
76759;DHT22;65701;45.588;5.186;2022-12-07T09:55:54;3.89;83.76
76759;DHT22;65701;45.588;5.186;2022-12-07T09:58:23;3.93;83.78
76759;DHT22;65701;45.588;5.186;2022-12-07T10:00:56;3.94;83.67
76759;DHT22;65701;45.588;5.186;2022-12-07T10:03:23;3.96;83.56
76759;DHT22;65701;45.588;5.186;2022-12-07T10:05:50;3.94;83.61
76759;DHT22;65701;45.588;5.186;2022-12-07T10:08:16;4.00;83.60
76759;DHT22;65701;45.588;5.186;2022-12-07T10:10:44;3.98;83.49
76759;DHT22;65701;45.588;5.186;2022-12-07T10:13:20;4.03;83.44
76759;DHT22;65701;45.588;5.186;2022-12-07T10:15:56;4.00;83.48
76759;DHT22;65701;45.588;5.186;2022-12-07T10:18:39;4.01;83.61
76759;DHT22;65701;45.588;5.186;2022-12-07T10:21:15;4.04;83.72
76759;DHT22;65701;45.588;5.186;2022-12-07T10:29:30;4.06;83.54
76759;DHT22;65701;45.588;5.186;2022-12-07T10:32:02;4.07;83.56
76759;DHT22;65701;45.588;5.186;2022-12-07T10:37:16;4.11;83.53
76759;DHT22;65701;45.588;5.186;2022-12-07T10:39:53;4.10;83.48
76759;DHT22;65701;45.588;5.186;2022-12-07T10:44:47;4.11;83.52
76759;DHT22;65701;45.588;5.186;2022-12-07T10:47:30;4.10;83.55
76759;DHT22;65701;45.588;5.186;2022-12-07T10:50:17;4.08;83.59
76759;DHT22;65701;45.588;5.186;2022-12-07T10:55:45;4.10;83.50
76759;DHT22;65701;45.588;5.186;2022-12-07T11:01:15;4.11;83.40
76759;DHT22;65701;45.588;5.186;2022-12-07T11:04:02;4.14;83.38
76759;DHT22;65701;45.588;5.186;2022-12-07T11:17:26;4.21;83.51
76759;DHT22;65701;45.588;5.186;2022-12-07T11:27:58;4.28;83.43
76759;DHT22;65701;45.588;5.186;2022-12-07T11:30:34;4.30;83.46
76759;DHT22;65701;45.588;5.186;2022-12-07T11:35:57;4.28;83.47
76759;DHT22;65701;45.588;5.186;2022-12-07T11:38:44;4.28;83.42
76759;DHT22;65701;45.588;5.186;2022-12-07T11:41:12;4.31;83.43
76759;DHT22;65701;45.588;5.186;2022-12-07T11:46:15;4.37;83.35
76759;DHT22;65701;45.588;5.186;2022-12-07T11:48:47;4.40;83.36
76759;DHT22;65701;45.588;5.186;2022-12-07T11:51:18;4.41;83.22
76759;DHT22;65701;45.588;5.186;2022-12-07T11:53:52;4.42;83.19
76759;DHT22;65701;45.588;5.186;2022-12-07T11:56:25;4.44;83.20
76759;DHT22;65701;45.588;5.186;2022-12-07T11:59:03;4.42;83.15
76759;DHT22;65701;45.588;5.186;2022-12-07T12:06:40;4.51;83.16
76759;DHT22;65701;45.588;5.186;2022-12-07T12:24:41;4.46;82.84
76759;DHT22;65701;45.588;5.186;2022-12-07T12:27:15;4.49;82.86
76759;DHT22;65701;45.588;5.186;2022-12-07T12:29:43;4.45;82.84
76759;DHT22;65701;45.588;5.186;2022-12-07T12:32:22;4.48;82.85
76759;DHT22;65701;45.588;5.186;2022-12-07T12:37:46;4.49;82.84
76759;DHT22;65701;45.588;5.186;2022-12-07T12:42:58;4.46;82.77
76759;DHT22;65701;45.588;5.186;2022-12-07T12:48:01;4.46;82.73
76759;DHT22;65701;45.588;5.186;2022-12-07T12:50:30;4.48;82.73
76759;DHT22;65701;45.588;5.186;2022-12-07T13:00:47;4.48;82.68
76759;DHT22;65701;45.588;5.186;2022-12-07T13:03:26;4.48;82.63
76759;DHT22;65701;45.588;5.186;2022-12-07T13:08:56;4.55;82.75
76759;DHT22;65701;45.588;5.186;2022-12-07T13:11:41;4.61;82.73
76759;DHT22;65701;45.588;5.186;2022-12-07T13:17:03;4.53;82.62
76759;DHT22;65701;45.588;5.186;2022-12-07T13:27:31;4.58;82.57
76759;DHT22;65701;45.588;5.186;2022-12-07T13:29:57;4.55;82.49
76759;DHT22;65701;45.588;5.186;2022-12-07T13:32:25;4.56;82.51
76759;DHT22;65701;45.588;5.186;2022-12-07T13:34:51;4.59;82.41
76759;DHT22;65701;45.588;5.186;2022-12-07T13:37:32;4.61;82.33
76759;DHT22;65701;45.588;5.186;2022-12-07T13:40:00;4.65;82.35
76759;DHT22;65701;45.588;5.186;2022-12-07T13:42:31;4.61;82.35
76759;DHT22;65701;45.588;5.186;2022-12-07T13:44:59;4.62;82.22
76759;DHT22;65701;45.588;5.186;2022-12-07T13:50:20;4.69;82.39
76759;DHT22;65701;45.588;5.186;2022-12-07T13:52:46;4.70;82.40
76759;DHT22;65701;45.588;5.186;2022-12-07T13:55:17;4.72;82.39
76759;DHT22;65701;45.588;5.186;2022-12-07T13:57:45;4.73;82.34
76759;DHT22;65701;45.588;5.186;2022-12-07T14:00:22;4.73;82.28
76759;DHT22;65701;45.588;5.186;2022-12-07T14:05:40;4.75;82.37
76759;DHT22;65701;45.588;5.186;2022-12-07T14:10:41;4.70;82.21
76759;DHT22;65701;45.588;5.186;2022-12-07T14:15:55;4.76;82.27
76759;DHT22;65701;45.588;5.186;2022-12-07T14:21:05;4.79;82.29
76759;DHT22;65701;45.588;5.186;2022-12-07T14:23:31;4.79;82.23
76759;DHT22;65701;45.588;5.186;2022-12-07T14:26:19;4.82;82.20
76759;DHT22;65701;45.588;5.186;2022-12-07T14:28:45;4.82;82.17
76759;DHT22;65701;45.588;5.186;2022-12-07T14:31:16;4.83;82.18
76759;DHT22;65701;45.588;5.186;2022-12-07T14:33:42;4.87;82.15
76759;DHT22;65701;45.588;5.186;2022-12-07T14:36:12;4.89;82.08
76759;DHT22;65701;45.588;5.186;2022-12-07T14:38:38;4.91;82.12
76759;DHT22;65701;45.588;5.186;2022-12-07T14:41:06;4.96;82.07
76759;DHT22;65701;45.588;5.186;2022-12-07T14:43:54;4.94;82.09
76759;DHT22;65701;45.588;5.186;2022-12-07T14:46:19;4.96;82.03
76759;DHT22;65701;45.588;5.186;2022-12-07T14:48:45;4.97;82.05
76759;DHT22;65701;45.588;5.186;2022-12-07T14:51:12;4.96;82.01
76759;DHT22;65701;45.588;5.186;2022-12-07T14:53:44;4.96;82.00
76759;DHT22;65701;45.588;5.186;2022-12-07T14:56:10;4.99;81.97
76759;DHT22;65701;45.588;5.186;2022-12-07T14:58:36;4.97;81.90
76759;DHT22;65701;45.588;5.186;2022-12-07T15:01:02;5.01;81.96
76759;DHT22;65701;45.588;5.186;2022-12-07T15:03:27;5.00;81.97
76759;DHT22;65701;45.588;5.186;2022-12-07T15:05:53;5.03;81.94
76759;DHT22;65701;45.588;5.186;2022-12-07T15:08:18;5.01;81.96
76759;DHT22;65701;45.588;5.186;2022-12-07T15:10:44;5.03;81.94
76759;DHT22;65701;45.588;5.186;2022-12-07T15:13:09;5.01;82.02
76759;DHT22;65701;45.588;5.186;2022-12-07T15:15:54;5.04;81.96
76759;DHT22;65701;45.588;5.186;2022-12-07T15:18:22;5.03;81.96
76759;DHT22;65701;45.588;5.186;2022-12-07T15:20:48;5.03;81.99
76759;DHT22;65701;45.588;5.186;2022-12-07T15:23:14;5.06;82.03
76759;DHT22;65701;45.588;5.186;2022-12-07T15:25:44;5.07;82.04
76759;DHT22;65701;45.588;5.186;2022-12-07T15:28:09;5.07;81.96
76759;DHT22;65701;45.588;5.186;2022-12-07T15:30:40;5.04;81.88
76759;DHT22;65701;45.588;5.186;2022-12-07T15:33:08;5.07;81.97
76759;DHT22;65701;45.588;5.186;2022-12-07T15:35:33;5.11;81.97
76759;DHT22;65701;45.588;5.186;2022-12-07T15:38:03;5.10;82.00
76759;DHT22;65701;45.588;5.186;2022-12-07T15:40:28;5.10;81.97
76759;DHT22;65701;45.588;5.186;2022-12-07T15:42:54;5.13;81.99
76759;DHT22;65701;45.588;5.186;2022-12-07T15:45:19;5.13;82.04
76759;DHT22;65701;45.588;5.186;2022-12-07T15:47:45;5.16;82.01
76759;DHT22;65701;45.588;5.186;2022-12-07T15:50:14;5.16;81.99
76759;DHT22;65701;45.588;5.186;2022-12-07T15:52:40;5.17;82.04
76759;DHT22;65701;45.588;5.186;2022-12-07T15:55:05;5.17;82.00
76759;DHT22;65701;45.588;5.186;2022-12-07T15:57:35;5.16;81.86
76759;DHT22;65701;45.588;5.186;2022-12-07T16:00:03;5.14;81.89
76759;DHT22;65701;45.588;5.186;2022-12-07T16:02:28;5.14;81.91
76759;DHT22;65701;45.588;5.186;2022-12-07T16:04:54;5.17;82.00
76759;DHT22;65701;45.588;5.186;2022-12-07T16:07:19;5.17;82.06
76759;DHT22;65701;45.588;5.186;2022-12-07T16:09:46;5.20;82.10
76759;DHT22;65701;45.588;5.186;2022-12-07T16:12:12;5.21;82.09
76759;DHT22;65701;45.588;5.186;2022-12-07T16:14:39;5.23;82.10
76759;DHT22;65701;45.588;5.186;2022-12-07T16:17:05;5.18;82.02
76759;DHT22;65701;45.588;5.186;2022-12-07T16:19:32;5.20;82.06
76759;DHT22;65701;45.588;5.186;2022-12-07T16:21:57;5.18;82.05
76759;DHT22;65701;45.588;5.186;2022-12-07T16:24:23;5.20;82.06
76759;DHT22;65701;45.588;5.186;2022-12-07T16:26:49;5.17;82.05
76759;DHT22;65701;45.588;5.186;2022-12-07T16:29:16;5.17;82.04
76759;DHT22;65701;45.588;5.186;2022-12-07T16:31:42;5.18;82.05
76759;DHT22;65701;45.588;5.186;2022-12-07T16:34:08;5.17;82.09
76759;DHT22;65701;45.588;5.186;2022-12-07T16:36:34;5.20;82.08
76759;DHT22;65701;45.588;5.186;2022-12-07T16:39:00;5.18;82.07
76759;DHT22;65701;45.588;5.186;2022-12-07T16:41:26;5.20;81.99
76759;DHT22;65701;45.588;5.186;2022-12-07T16:43:51;5.16;81.95
76759;DHT22;65701;45.588;5.186;2022-12-07T16:46:17;5.11;81.80
76759;DHT22;65701;45.588;5.186;2022-12-07T16:48:43;5.11;81.84
76759;DHT22;65701;45.588;5.186;2022-12-07T16:51:10;5.10;81.90
76759;DHT22;65701;45.588;5.186;2022-12-07T16:53:37;5.11;82.00
76759;DHT22;65701;45.588;5.186;2022-12-07T16:56:03;5.13;82.03
76759;DHT22;65701;45.588;5.186;2022-12-07T16:58:30;5.10;82.02
76759;DHT22;65701;45.588;5.186;2022-12-07T17:00:56;5.13;82.00
76759;DHT22;65701;45.588;5.186;2022-12-07T17:03:22;5.11;81.95
76759;DHT22;65701;45.588;5.186;2022-12-07T17:05:48;5.10;81.93
76759;DHT22;65701;45.588;5.186;2022-12-07T17:08:14;5.11;81.98
76759;DHT22;65701;45.588;5.186;2022-12-07T17:10:42;5.11;82.00
76759;DHT22;65701;45.588;5.186;2022-12-07T17:13:09;5.10;82.00
76759;DHT22;65701;45.588;5.186;2022-12-07T17:16:05;5.10;81.92
76759;DHT22;65701;45.588;5.186;2022-12-07T17:18:33;5.06;81.88
76759;DHT22;65701;45.588;5.186;2022-12-07T17:21:07;5.01;81.89
76759;DHT22;65701;45.588;5.186;2022-12-07T17:23:34;4.97;81.82
76759;DHT22;65701;45.588;5.186;2022-12-07T17:26:13;4.93;81.79
76759;DHT22;65701;45.588;5.186;2022-12-07T17:28:39;4.91;81.80
76759;DHT22;65701;45.588;5.186;2022-12-07T17:31:07;4.91;81.86
76759;DHT22;65701;45.588;5.186;2022-12-07T17:33:33;4.93;81.88
76759;DHT22;65701;45.588;5.186;2022-12-07T17:35:59;4.90;81.84
76759;DHT22;65701;45.588;5.186;2022-12-07T17:38:25;4.89;81.89
76759;DHT22;65701;45.588;5.186;2022-12-07T17:40:50;4.90;81.94
76759;DHT22;65701;45.588;5.186;2022-12-07T17:43:16;4.87;81.85
76759;DHT22;65701;45.588;5.186;2022-12-07T17:45:41;4.84;81.79
76759;DHT22;65701;45.588;5.186;2022-12-07T17:48:07;4.83;81.83
76759;DHT22;65701;45.588;5.186;2022-12-07T17:50:32;4.82;81.87
76759;DHT22;65701;45.588;5.186;2022-12-07T17:53:17;4.80;81.90
76759;DHT22;65701;45.588;5.186;2022-12-07T17:55:42;4.79;81.93
76759;DHT22;65701;45.588;5.186;2022-12-07T17:58:08;4.77;81.91
76759;DHT22;65701;45.588;5.186;2022-12-07T18:00:33;4.79;81.92
76759;DHT22;65701;45.588;5.186;2022-12-07T18:03:06;4.77;81.91
76759;DHT22;65701;45.588;5.186;2022-12-07T18:05:37;4.77;81.93
76759;DHT22;65701;45.588;5.186;2022-12-07T18:08:06;4.79;81.90
76759;DHT22;65701;45.588;5.186;2022-12-07T18:10:32;4.76;81.91
76759;DHT22;65701;45.588;5.186;2022-12-07T18:12:58;4.76;81.94
76759;DHT22;65701;45.588;5.186;2022-12-07T18:15:42;4.77;81.96
76759;DHT22;65701;45.588;5.186;2022-12-07T18:18:07;4.79;81.96
76759;DHT22;65701;45.588;5.186;2022-12-07T18:20:33;4.79;81.95
76759;DHT22;65701;45.588;5.186;2022-12-07T18:22:58;4.79;82.00
76759;DHT22;65701;45.588;5.186;2022-12-07T18:25:24;4.79;82.03
76759;DHT22;65701;45.588;5.186;2022-12-07T18:27:49;4.82;82.06
76759;DHT22;65701;45.588;5.186;2022-12-07T18:30:15;4.84;82.07
76759;DHT22;65701;45.588;5.186;2022-12-07T18:32:40;4.84;82.10
76759;DHT22;65701;45.588;5.186;2022-12-07T18:35:06;4.89;82.17
76759;DHT22;65701;45.588;5.186;2022-12-07T18:37:32;4.87;82.15
76759;DHT22;65701;45.588;5.186;2022-12-07T18:39:58;4.90;82.13
76759;DHT22;65701;45.588;5.186;2022-12-07T18:42:23;4.89;82.17
76759;DHT22;65701;45.588;5.186;2022-12-07T18:44:49;4.87;82.20
76759;DHT22;65701;45.588;5.186;2022-12-07T18:47:14;4.90;82.22
76759;DHT22;65701;45.588;5.186;2022-12-07T18:49:40;4.91;82.27
76759;DHT22;65701;45.588;5.186;2022-12-07T18:52:06;4.93;82.28
76759;DHT22;65701;45.588;5.186;2022-12-07T18:54:31;4.94;82.23
76759;DHT22;65701;45.588;5.186;2022-12-07T18:56:56;4.93;82.21
76759;DHT22;65701;45.588;5.186;2022-12-07T18:59:22;4.97;82.22
76759;DHT22;65701;45.588;5.186;2022-12-07T19:02:06;4.94;82.15
76759;DHT22;65701;45.588;5.186;2022-12-07T19:04:32;4.96;82.17
76759;DHT22;65701;45.588;5.186;2022-12-07T19:06:57;4.94;82.12
76759;DHT22;65701;45.588;5.186;2022-12-07T19:09:23;4.94;82.15
76759;DHT22;65701;45.588;5.186;2022-12-07T19:11:48;4.96;82.11
76759;DHT22;65701;45.588;5.186;2022-12-07T19:14:21;4.91;82.08
76759;DHT22;65701;45.588;5.186;2022-12-07T19:16:47;4.89;82.10
76759;DHT22;65701;45.588;5.186;2022-12-07T19:19:18;4.89;82.07
76759;DHT22;65701;45.588;5.186;2022-12-07T19:21:44;4.90;82.14
76759;DHT22;65701;45.588;5.186;2022-12-07T19:24:10;4.91;82.10
76759;DHT22;65701;45.588;5.186;2022-12-07T19:26:35;4.93;82.11
76759;DHT22;65701;45.588;5.186;2022-12-07T19:29:01;4.94;82.10
76759;DHT22;65701;45.588;5.186;2022-12-07T19:31:28;4.94;82.11
76759;DHT22;65701;45.588;5.186;2022-12-07T19:33:54;4.97;82.13
76759;DHT22;65701;45.588;5.186;2022-12-07T19:36:19;4.97;82.12
76759;DHT22;65701;45.588;5.186;2022-12-07T19:38:45;4.99;82.12
76759;DHT22;65701;45.588;5.186;2022-12-07T19:41:12;5.00;82.15
76759;DHT22;65701;45.588;5.186;2022-12-07T19:43:57;5.00;82.13
76759;DHT22;65701;45.588;5.186;2022-12-07T19:46:23;4.99;82.21
76759;DHT22;65701;45.588;5.186;2022-12-07T19:48:49;5.01;82.15
76759;DHT22;65701;45.588;5.186;2022-12-07T19:51:15;5.00;82.16
76759;DHT22;65701;45.588;5.186;2022-12-07T19:53:40;5.00;82.15
76759;DHT22;65701;45.588;5.186;2022-12-07T19:56:06;5.00;82.13
76759;DHT22;65701;45.588;5.186;2022-12-07T19:58:32;5.01;82.16
76759;DHT22;65701;45.588;5.186;2022-12-07T20:01:02;5.00;82.11
76759;DHT22;65701;45.588;5.186;2022-12-07T20:03:28;4.99;82.10
76759;DHT22;65701;45.588;5.186;2022-12-07T20:05:54;4.99;82.05
76759;DHT22;65701;45.588;5.186;2022-12-07T20:08:21;5.00;82.08
76759;DHT22;65701;45.588;5.186;2022-12-07T20:10:47;4.97;82.05
76759;DHT22;65701;45.588;5.186;2022-12-07T20:13:12;5.01;82.07
76759;DHT22;65701;45.588;5.186;2022-12-07T20:15:57;5.03;82.15
76759;DHT22;65701;45.588;5.186;2022-12-07T20:18:23;5.03;82.18
76759;DHT22;65701;45.588;5.186;2022-12-07T20:20:58;5.04;82.14
76759;DHT22;65701;45.588;5.186;2022-12-07T20:23:28;5.06;82.17
76759;DHT22;65701;45.588;5.186;2022-12-07T20:25:53;5.06;82.15
76759;DHT22;65701;45.588;5.186;2022-12-07T20:28:19;5.07;82.23
76759;DHT22;65701;45.588;5.186;2022-12-07T20:30:49;5.10;82.25
76759;DHT22;65701;45.588;5.186;2022-12-07T20:33:15;5.07;82.18
76759;DHT22;65701;45.588;5.186;2022-12-07T20:35:40;5.06;82.14
76759;DHT22;65701;45.588;5.186;2022-12-07T20:38:07;5.04;82.10
76759;DHT22;65701;45.588;5.186;2022-12-07T20:40:32;5.00;82.16
76759;DHT22;65701;45.588;5.186;2022-12-07T20:42:58;4.97;82.12
76759;DHT22;65701;45.588;5.186;2022-12-07T20:45:23;4.97;82.22
76759;DHT22;65701;45.588;5.186;2022-12-07T20:47:49;4.99;82.25
76759;DHT22;65701;45.588;5.186;2022-12-07T20:50:14;4.97;82.27
76759;DHT22;65701;45.588;5.186;2022-12-07T20:52:40;4.96;82.29
76759;DHT22;65701;45.588;5.186;2022-12-07T20:55:05;4.97;82.31
76759;DHT22;65701;45.588;5.186;2022-12-07T20:57:31;4.96;82.31
76759;DHT22;65701;45.588;5.186;2022-12-07T20:59:56;4.96;82.30
76759;DHT22;65701;45.588;5.186;2022-12-07T21:02:22;4.93;82.19
76759;DHT22;65701;45.588;5.186;2022-12-07T21:04:48;4.90;82.15
76759;DHT22;65701;45.588;5.186;2022-12-07T21:07:13;4.84;82.18
76759;DHT22;65701;45.588;5.186;2022-12-07T21:09:39;4.86;82.22
76759;DHT22;65701;45.588;5.186;2022-12-07T21:12:04;4.86;82.23
76759;DHT22;65701;45.588;5.186;2022-12-07T21:14:30;4.86;82.25
76759;DHT22;65701;45.588;5.186;2022-12-07T21:16:56;4.89;82.27
76759;DHT22;65701;45.588;5.186;2022-12-07T21:19:21;4.90;82.18
76759;DHT22;65701;45.588;5.186;2022-12-07T21:21:47;4.90;82.20
76759;DHT22;65701;45.588;5.186;2022-12-07T21:24:12;4.93;82.13
76759;DHT22;65701;45.588;5.186;2022-12-07T21:26:38;4.93;82.07
76759;DHT22;65701;45.588;5.186;2022-12-07T21:29:05;4.94;82.04
76759;DHT22;65701;45.588;5.186;2022-12-07T21:31:31;4.93;82.02
76759;DHT22;65701;45.588;5.186;2022-12-07T21:33:56;4.97;82.03
76759;DHT22;65701;45.588;5.186;2022-12-07T21:36:24;4.94;82.05
76759;DHT22;65701;45.588;5.186;2022-12-07T21:38:50;4.96;82.05
76759;DHT22;65701;45.588;5.186;2022-12-07T21:41:27;4.96;82.08
76759;DHT22;65701;45.588;5.186;2022-12-07T21:43:52;4.96;82.05
76759;DHT22;65701;45.588;5.186;2022-12-07T21:46:22;4.91;82.03
76759;DHT22;65701;45.588;5.186;2022-12-07T21:48:49;4.97;82.05
76759;DHT22;65701;45.588;5.186;2022-12-07T21:51:15;4.94;82.04
76759;DHT22;65701;45.588;5.186;2022-12-07T21:53:41;4.96;82.01
76759;DHT22;65701;45.588;5.186;2022-12-07T21:58:40;4.96;82.05
76759;DHT22;65701;45.588;5.186;2022-12-07T22:01:05;4.97;82.07
76759;DHT22;65701;45.588;5.186;2022-12-07T22:03:31;5.00;82.06
76759;DHT22;65701;45.588;5.186;2022-12-07T22:06:00;4.97;82.07
76759;DHT22;65701;45.588;5.186;2022-12-07T22:08:26;5.00;81.95
76759;DHT22;65701;45.588;5.186;2022-12-07T22:10:51;4.97;81.88
76759;DHT22;65701;45.588;5.186;2022-12-07T22:13:17;4.96;81.80
76759;DHT22;65701;45.588;5.186;2022-12-07T22:15:42;4.94;81.81
76759;DHT22;65701;45.588;5.186;2022-12-07T22:18:08;4.96;81.86
76759;DHT22;65701;45.588;5.186;2022-12-07T22:20:33;4.96;81.91
76759;DHT22;65701;45.588;5.186;2022-12-07T22:22:59;4.96;81.98
76759;DHT22;65701;45.588;5.186;2022-12-07T22:25:25;4.96;81.97
